Gaschem Phoenix — ELUO6 — position and weather

sailwx.info

Track history (hours):
 
Tides and Currents Weather Stations Pressure Air Temp Water Temp Dewpoint Dewpoint Depression Visibility Wind Speed Wind Dir Waves Ship Positions

Gaschem Phoenix

Last reported at 2016-Feb-06 17:27 UTC. Time now 2016-Feb-07 01:28 UTC.
Position N 32°06' E 119°55'.

Length 100 m; draft 6.1 m.

Type: Ship. MMSI: 636090235.

Date/timePositionNaut miles runAvg speedWind from/ knotsBaromVisibWave heightAir tempDewpointWater temp
2016-Feb-06 17:27N 32°06' E 119°55'9 9.7
2016-Feb-06 16:31N 31°59' E 120°01'9 9.5
2016-Feb-06 15:33N 31°56' E 120°11'10 9.1
2016-Feb-06 14:29N 31°60' E 120°22'9 8.8
2016-Feb-06 13:27N 32°04' E 120°31'10 8.9
2016-Feb-06 12:20N 32°00' E 120°42'8 8.9
2016-Feb-06 11:27N 31°58' E 120°51'9 9.5
2016-Feb-06 10:30N 31°50' E 120°54'9 9.1
2016-Feb-06 09:30N 31°46' E 121°04'9 9.8
2016-Feb-06 08:34N 31°40' E 121°13'1010.1
2016-Feb-06 07:33N 31°33' E 121°21'1010.4
2016-Feb-06 06:33N 31°26' E 121°30'4 4.4
2016-Feb-06 05:33N 31°24' E 121°34'6 6.2
2016-Feb-06 04:33N 31°21' E 121°41'14 9.9
2016-Feb-06 03:10N 31°10' E 121°51'710.6
2016-Feb-06 02:32N 31°07' E 121°58'  
2016-Feb-01 08:32N 31°08' E 121°55'1211.5
2016-Feb-01 07:30N 31°16' E 121°45'1111.5
2016-Feb-01 06:32N 31°23' E 121°35'9 9.3
2016-Feb-01 05:33N 31°28' E 121°27'1211.6
2016-Feb-01 04:33N 31°36' E 121°17'1414.3
2016-Feb-01 03:33N 31°46' E 121°04'1312.9
2016-Feb-01 02:33N 31°54' E 120°53'1211.5
2016-Feb-01 01:33N 32°00' E 120°41'1311.6
2016-Feb-01 00:27N 32°04' E 120°27'1112.5
2016-Jan-31 23:33N 31°57' E 120°16'17 1.0
2016-Jan-31 07:32N 32°02' E 119°57'8 0.2
2016-Jan-29 16:29N 31°57' E 120°05'12 9.4
2016-Jan-29 15:16N 31°58' E 120°19'810.6
2016-Jan-29 14:30N 32°03' E 120°26'9 9.7
2016-Jan-29 13:33N 32°01' E 120°36'10 9.8
2016-Jan-29 12:31N 32°00' E 120°48'1211.0
2016-Jan-29 11:26N 31°50' E 120°54'1011.1
2016-Jan-29 10:33N 31°45' E 121°05'1312.5
2016-Jan-29 09:33N 31°37' E 121°16'1212.3
2016-Jan-29 08:33N 31°29' E 121°27'9 8.6
2016-Jan-29 07:34N 31°24' E 121°34'9 8.6
2016-Jan-29 06:33N 31°19' E 121°43'1111.1
2016-Jan-29 05:33N 31°10' E 121°51'  
Track history (hours):
 
Tides and Currents Weather Stations Pressure Air Temp Water Temp Dewpoint Dewpoint Depression Visibility Wind Speed Wind Dir Waves Ship Positions

Gaschem Phoenix

Last reported at 2016-Feb-06 17:27 UTC. Time now 2016-Feb-07 01:28 UTC.
Position N 32°06' E 119°55'.

Length 100 m; draft 6.1 m.

Type: Ship. MMSI: 636090235.

Date/timePositionNaut miles runAvg speedWind from/ knotsBaromVisibWave heightAir tempDewpointWater temp
2016-Feb-06 17:27N 32°06' E 119°55'9 9.7
2016-Feb-06 16:31N 31°59' E 120°01'9 9.5
2016-Feb-06 15:33N 31°56' E 120°11'10 9.1
2016-Feb-06 14:29N 31°60' E 120°22'9 8.8
2016-Feb-06 13:27N 32°04' E 120°31'10 8.9
2016-Feb-06 12:20N 32°00' E 120°42'8 8.9
2016-Feb-06 11:27N 31°58' E 120°51'9 9.5
2016-Feb-06 10:30N 31°50' E 120°54'9 9.1
2016-Feb-06 09:30N 31°46' E 121°04'9 9.8
2016-Feb-06 08:34N 31°40' E 121°13'1010.1
2016-Feb-06 07:33N 31°33' E 121°21'1010.4
2016-Feb-06 06:33N 31°26' E 121°30'4 4.4
2016-Feb-06 05:33N 31°24' E 121°34'6 6.2
2016-Feb-06 04:33N 31°21' E 121°41'14 9.9
2016-Feb-06 03:10N 31°10' E 121°51'710.6
2016-Feb-06 02:32N 31°07' E 121°58'  
2016-Feb-01 08:32N 31°08' E 121°55'1211.5
2016-Feb-01 07:30N 31°16' E 121°45'1111.5
2016-Feb-01 06:32N 31°23' E 121°35'9 9.3
2016-Feb-01 05:33N 31°28' E 121°27'1211.6
2016-Feb-01 04:33N 31°36' E 121°17'1414.3
2016-Feb-01 03:33N 31°46' E 121°04'1312.9
2016-Feb-01 02:33N 31°54' E 120°53'1211.5
2016-Feb-01 01:33N 32°00' E 120°41'1311.6
2016-Feb-01 00:27N 32°04' E 120°27'1112.5
2016-Jan-31 23:33N 31°57' E 120°16'17 1.0
2016-Jan-31 07:32N 32°02' E 119°57'8 0.2
2016-Jan-29 16:29N 31°57' E 120°05'12 9.4
2016-Jan-29 15:16N 31°58' E 120°19'810.6
2016-Jan-29 14:30N 32°03' E 120°26'9 9.7
2016-Jan-29 13:33N 32°01' E 120°36'10 9.8
2016-Jan-29 12:31N 32°00' E 120°48'1211.0
2016-Jan-29 11:26N 31°50' E 120°54'1011.1
2016-Jan-29 10:33N 31°45' E 121°05'1312.5
2016-Jan-29 09:33N 31°37' E 121°16'1212.3
2016-Jan-29 08:33N 31°29' E 121°27'9 8.6
2016-Jan-29 07:34N 31°24' E 121°34'9 8.6
2016-Jan-29 06:33N 31°19' E 121°43'1111.1
2016-Jan-29 05:33N 31°10' E 121°51'  

Dump ship's entire track history